Time;durP1;ratioP1;P1;durP2;ratioP2;P2;SDS_P1;SDS_P2;PMS_P1;PMS_P2;Temp;Humidity;BMP_temperature;BMP_pressure;BME280_temperature;BME280_humidity;BME280_pressure;Samples;Min_cycle;Max_cycle;Signal;HPM_P1;HPM_P2
2022/11/30 06:17:11;;;;;;;;;;;;;;;9.29;66.63;96906.31;4258849;27;10221;-62
2022/11/30 06:19:14;;;;;;;;;;;;;;;9.53;66.30;96899.94;4228421;28;5731;-62
2022/11/30 06:21:17;;;;;;;;;;;;;;;9.78;66.00;96899.63;4237039;27;5687;-62
2022/11/30 06:23:26;;;;;;;;;;;;;;;9.93;65.35;96897.75;4238660;27;5610;-62
2022/11/30 06:25:29;;;;;;;;;;;;;;;10.02;64.94;96907.22;4242208;27;5616;-63
2022/11/30 06:27:32;;;;;;;;;;;;;;;10.14;64.97;96904.91;4236227;27;5657;-62
2022/11/30 06:29:35;;;;;;;;;;;;;;;10.26;64.60;96900.78;4241624;27;5586;-63
2022/11/30 06:31:37;;;;;;;;;;;;;;;10.40;64.38;96907.00;4238442;27;5695;-63
2022/11/30 06:33:42;;;;;;;;;;;;;;;10.49;64.17;96903.22;4241502;27;5597;-62
2022/11/30 06:35:45;;;;;;;;;;;;;;;10.56;64.34;96906.75;4240116;27;5792;-63
2022/11/30 06:37:48;;;;;;;;;;;;;;;10.63;64.11;96904.97;4243467;27;5615;-62
2022/11/30 06:39:51;;;;;;;;;;;;;;;10.68;64.00;96917.63;4241798;27;5977;-62
2022/11/30 06:42:09;;;;;;;;;;;;;;;10.73;63.73;96909.94;4243914;27;5590;-62
2022/11/30 06:44:11;;;;;;;;;;;;;;;10.76;63.54;96904.28;4237637;27;5606;-62
2022/11/30 06:46:15;;;;;;;;;;;;;;;10.78;63.49;96907.56;4242298;27;5597;-62
2022/11/30 06:48:18;;;;;;;;;;;;;;;10.78;63.36;96908.38;4239363;27;6292;-62
2022/11/30 06:50:22;;;;;;;;;;;;;;;10.79;63.15;96915.28;4240789;27;5752;-62
2022/11/30 06:52:25;;;;;;;;;;;;;;;10.85;63.38;96918.16;4234672;27;5680;-63
2022/11/30 06:54:28;;;;;;;;;;;;;;;10.86;63.36;96914.50;4239480;27;5626;-62
2022/11/30 06:56:30;;;;;;;;;;;;;;;10.89;63.19;96919.44;4246819;27;5613;-62
2022/11/30 06:58:33;;;;;;;;;;;;;;;10.88;63.09;96915.97;4243086;27;5619;-62
2022/11/30 07:00:37;;;;;;;;;;;;;;;10.88;62.87;96918.63;4244189;27;5098;-62
2022/11/30 07:02:39;;;;;;;;;;;;;;;10.88;62.70;96910.69;4239290;27;5684;-63
2022/11/30 07:04:42;;;;;;;;;;;;;;;10.90;62.32;96913.13;4233333;27;5738;-63
2022/11/30 07:06:46;;;;;;;;;;;;;;;10.85;62.54;96918.97;4236104;27;5585;-62
2022/11/30 07:08:49;;;;;;;;;;;;;;;10.82;62.22;96919.38;4241657;27;5618;-63
2022/11/30 07:10:52;;;;;;;;;;;;;;;10.84;62.50;96906.78;4240689;27;5703;-63
2022/11/30 07:12:55;;;;;;;;;;;;;;;10.87;62.54;96910.84;4246300;27;5681;-63
2022/11/30 07:15:00;;;;;;;;;;;;;;;10.84;62.41;96914.72;4247472;27;5831;-63
2022/11/30 07:17:03;;;;;;;;;;;;;;;10.84;62.31;96913.91;4225082;28;6652;-63
2022/11/30 07:19:06;;;;;;;;;;;;;;;10.82;62.05;96914.09;4227711;28;5684;-62
2022/11/30 07:21:10;;;;;;;;;;;;;;;10.86;62.33;96917.97;4227799;28;5759;-62
2022/11/30 07:27:56;;;;;;;;;;;;;;;10.94;61.89;96915.19;4227706;28;5676;-63
2022/11/30 07:29:59;;;;;;;;;;;;;;;10.95;61.63;96918.66;4235815;28;5654;-60
2022/11/30 07:32:02;;;;;;;;;;;;;;;10.96;61.71;96918.47;4219606;28;5821;-63
2022/11/30 07:34:07;;;;;;;;;;;;;;;10.98;61.58;96927.00;4219398;28;6406;-62
2022/11/30 07:36:10;;;;;;;;;;;;;;;11.00;61.68;96924.22;4227205;28;5693;-61
2022/11/30 07:38:17;;;;;;;;;;;;;;;11.01;61.63;96929.31;4218610;28;5697;-62
2022/11/30 07:40:22;;;;;;;;;;;;;;;11.02;61.26;96922.19;4219189;28;5851;-63
2022/11/30 07:42:25;;;;;;;;;;;;;;;11.00;61.34;96921.56;4227474;28;5609;-63
2022/11/30 07:44:27;;;;;;;;;;;;;;;11.01;60.96;96924.00;4218808;28;5604;-62
2022/11/30 07:46:32;;;;;;;;;;;;;;;11.02;61.28;96919.53;4218831;28;5608;-62
2022/11/30 07:48:35;;;;;;;;;;;;;;;11.05;60.99;96930.53;4227629;28;5753;-62
2022/11/30 07:50:37;;;;;;;;;;;;;;;11.04;60.96;96923.63;4223613;28;5709;-62
2022/11/30 07:52:41;;;;;;;;;;;;;;;11.06;60.71;96926.06;4227110;28;5598;-62
2022/11/30 07:54:45;;;;;;;;;;;;;;;11.08;61.04;96929.31;4235491;28;5598;-62
2022/11/30 07:56:48;;;;;;;;;;;;;;;11.07;60.90;96935.63;4227138;28;5605;-62
2022/11/30 07:58:55;;;;;;;;;;;;;;;11.05;60.93;96935.00;4220409;28;5715;-62
2022/11/30 08:01:01;;;;;;;;;;;;;;;11.02;60.49;96925.66;4218828;28;5703;-61
2022/11/30 08:03:04;;;;;;;;;;;;;;;11.06;60.88;96940.09;4227706;28;5590;-62
2022/11/30 08:05:10;;;;;;;;;;;;;;;11.06;60.55;96934.81;4208051;28;5786;-63
2022/11/30 08:07:14;;;;;;;;;;;;;;;11.05;60.52;96932.38;4226881;28;5593;-64
2022/11/30 08:09:17;;;;;;;;;;;;;;;11.05;60.36;96932.38;4226898;28;5701;-61
2022/11/30 08:11:26;;;;;;;;;;;;;;;11.05;60.49;96933.19;4225989;28;5609;-61
2022/11/30 08:13:29;;;;;;;;;;;;;;;11.04;60.39;96938.69;4231986;28;5624;-62
2022/11/30 08:15:33;;;;;;;;;;;;;;;11.03;60.48;96937.84;4228220;28;5621;-62
2022/11/30 08:17:39;;;;;;;;;;;;;;;11.03;60.46;96937.03;4233310;28;5751;-63
2022/11/30 08:19:42;;;;;;;;;;;;;;;11.02;60.35;96930.94;4225892;28;5778;-62
2022/11/30 08:21:45;;;;;;;;;;;;;;;11.04;60.35;96928.91;4227565;28;5617;-63
2022/11/30 08:23:50;;;;;;;;;;;;;;;11.03;60.21;96934.41;4225792;28;5605;-62
2022/11/30 08:25:53;;;;;;;;;;;;;;;11.04;60.39;96934.19;4221407;28;5707;-63
2022/11/30 08:27:57;;;;;;;;;;;;;;;11.05;60.00;96933.19;4218340;28;5612;-62
2022/11/30 08:30:00;;;;;;;;;;;;;;;11.07;60.04;96941.75;4217543;28;5613;-62
2022/11/30 08:32:03;;;;;;;;;;;;;;;11.10;59.93;96937.91;4224864;28;5507;-62
2022/11/30 08:34:08;;;;;;;;;;;;;;;11.12;60.13;96948.31;4223847;28;6933;-63
2022/11/30 08:36:13;;;;;;;;;;;;;;;11.13;59.69;96952.59;4218237;28;5632;-63
2022/11/30 08:38:16;;;;;;;;;;;;;;;11.11;59.54;96946.69;4226601;28;5609;-61
2022/11/30 08:40:19;;;;;;;;;;;;;;;11.10;59.85;96948.50;4226288;28;5651;-63
2022/11/30 08:42:22;;;;;;;;;;;;;;;11.13;59.90;96942.81;4218643;28;5712;-63
2022/11/30 08:44:27;;;;;;;;;;;;;;;11.15;59.95;96942.63;4218380;28;5636;-63
2022/11/30 08:46:30;;;;;;;;;;;;;;;11.15;59.56;96956.66;4230757;28;5633;-63
2022/11/30 08:48:53;;;;;;;;;;;;;;;11.15;59.47;96953.22;4219589;28;6322;-63
2022/11/30 08:51:17;;;;;;;;;;;;;;;11.15;59.44;96943.44;4224635;28;5720;-63
2022/11/30 08:53:20;;;;;;;;;;;;;;;11.14;59.67;96941.00;4234865;28;5607;-63
2022/11/30 08:55:23;;;;;;;;;;;;;;;11.17;59.40;96948.53;4232406;28;5637;-63
2022/11/30 08:57:26;;;;;;;;;;;;;;;11.18;59.23;96950.16;4218262;28;5613;-62
2022/11/30 08:59:32;;;;;;;;;;;;;;;11.14;59.09;96946.28;4226490;28;5830;-62
2022/11/30 09:01:35;;;;;;;;;;;;;;;11.16;59.16;96952.19;4222752;28;5645;-62
2022/11/30 09:03:38;;;;;;;;;;;;;;;11.19;59.37;96954.44;4221502;28;5716;-62
2022/11/30 09:05:41;;;;;;;;;;;;;;;11.19;59.30;96954.44;4210996;28;5636;-62
2022/11/30 09:07:44;;;;;;;;;;;;;;;11.22;58.96;96943.50;4226029;28;5608;-62
2022/11/30 09:09:48;;;;;;;;;;;;;;;11.22;59.04;96935.56;4231860;28;5712;-62
2022/11/30 09:11:53;;;;;;;;;;;;;;;11.23;58.94;96940.66;4219221;28;5693;-62
2022/11/30 09:14:00;;;;;;;;;;;;;;;11.25;58.99;96945.75;4217026;28;5635;-63
2022/11/30 09:16:04;;;;;;;;;;;;;;;11.28;58.74;96943.53;4226012;28;5680;-69
2022/11/30 09:18:08;;;;;;;;;;;;;;;11.30;58.65;96941.50;4217602;28;5740;-69
2022/11/30 09:20:13;;;;;;;;;;;;;;;11.30;58.40;96941.50;4199735;28;5745;-69
2022/11/30 09:22:17;;;;;;;;;;;;;;;11.34;58.32;96949.88;4218244;28;5624;-70
2022/11/30 09:24:21;;;;;;;;;;;;;;;11.34;58.29;96948.06;4224042;28;5748;-65
2022/11/30 09:26:25;;;;;;;;;;;;;;;11.36;58.52;96947.84;4226620;28;5594;-66
2022/11/30 09:28:30;;;;;;;;;;;;;;;11.41;58.19;96955.19;4226220;28;5729;-66
2022/11/30 09:30:35;;;;;;;;;;;;;;;11.45;58.38;96951.19;4222674;28;5609;-66
2022/11/30 09:32:40;;;;;;;;;;;;;;;11.49;58.15;96955.88;4222256;28;5645;-68
2022/11/30 09:34:43;;;;;;;;;;;;;;;11.51;57.94;96956.50;4225788;28;6272;-68
2022/11/30 09:36:47;;;;;;;;;;;;;;;11.51;57.79;96956.50;4226138;28;5822;-67
2022/11/30 09:38:50;;;;;;;;;;;;;;;11.51;58.11;96953.03;4228907;28;5605;-67
2022/11/30 09:40:55;;;;;;;;;;;;;;;11.54;57.93;96952.63;4225644;28;5730;-68
2022/11/30 09:43:04;;;;;;;;;;;;;;;11.55;57.88;96949.81;4223742;28;5633;-69
2022/11/30 09:45:16;;;;;;;;;;;;;;;11.54;57.69;96956.09;4228109;28;5693;-69
2022/11/30 09:47:30;;;;;;;;;;;;;;;11.56;57.62;96950.63;4227079;28;5747;-69
2022/11/30 09:49:39;;;;;;;;;;;;;;;11.58;57.84;96953.91;4223764;28;5804;-68
2022/11/30 09:51:45;;;;;;;;;;;;;;;11.61;57.66;96959.59;4224147;28;5799;-68
2022/11/30 09:53:54;;;;;;;;;;;;;;;11.62;57.37;96947.19;4230687;28;5602;-68
2022/11/30 09:56:00;;;;;;;;;;;;;;;11.59;57.29;96948.41;4223651;28;5607;-68
2022/11/30 09:58:05;;;;;;;;;;;;;;;11.59;57.26;96959.00;4226272;28;5941;-62
2022/11/30 10:00:14;;;;;;;;;;;;;;;11.60;57.19;96943.91;4226303;28;7087;-67
2022/11/30 10:02:18;;;;;;;;;;;;;;;11.60;57.32;96943.91;4227268;28;5709;-67
2022/11/30 10:04:23;;;;;;;;;;;;;;;11.61;57.39;96941.06;4222022;28;5626;-64
2022/11/30 10:06:35;;;;;;;;;;;;;;;11.59;56.93;96934.34;4224731;28;5604;-74
2022/11/30 10:08:47;;;;;;;;;;;;;;;11.56;56.70;96927.63;4228812;28;5677;-70
2022/11/30 10:11:05;;;;;;;;;;;;;;;11.57;57.20;96928.44;4228558;28;5613;-69
2022/11/30 10:13:31;;;;;;;;;;;;;;;11.63;57.10;96927.63;4221286;28;5104;-68
2022/11/30 10:15:48;;;;;;;;;;;;;;;11.65;56.54;96931.72;4225794;28;7707;-67
2022/11/30 10:17:54;;;;;;;;;;;;;;;11.67;56.76;96928.91;4227518;28;5601;-67
2022/11/30 10:20:18;;;;;;;;;;;;;;;11.65;56.44;96918.47;4225225;28;6422;-67
2022/11/30 10:22:32;;;;;;;;;;;;;;;11.57;56.28;96931.91;4226949;28;5952;-66
2022/11/30 10:24:54;;;;;;;;;;;;;;;11.53;56.20;96927.16;4229549;28;5649;-66
2022/11/30 10:26:59;;;;;;;;;;;;;;;11.55;56.10;96928.63;4223360;28;5832;-67
2022/11/30 10:29:12;;;;;;;;;;;;;;;11.58;56.46;96924.78;4219851;28;5598;-65
2022/11/30 10:31:16;;;;;;;;;;;;;;;11.62;56.35;96921.53;4227619;28;5582;-65
2022/11/30 10:33:27;;;;;;;;;;;;;;;11.62;56.25;96916.22;4221165;28;5784;-65
2022/11/30 10:35:37;;;;;;;;;;;;;;;11.65;56.01;96920.31;4222007;28;5601;-65
2022/11/30 10:37:42;;;;;;;;;;;;;;;11.66;56.28;96912.19;4219085;28;5600;-65
2022/11/30 10:39:51;;;;;;;;;;;;;;;11.66;56.01;96917.47;4216836;28;5624;-65
2022/11/30 10:42:01;;;;;;;;;;;;;;;11.61;55.85;96909.28;4223882;28;5606;-65
2022/11/30 10:44:11;;;;;;;;;;;;;;;11.61;55.67;96911.13;4202078;28;5875;-65
2022/11/30 10:46:20;;;;;;;;;;;;;;;11.54;55.58;96908.44;4223325;28;5670;-65
2022/11/30 10:48:31;;;;;;;;;;;;;;;11.58;55.89;96908.88;4225162;28;5616;-65
2022/11/30 10:50:34;;;;;;;;;;;;;;;11.61;55.84;96914.59;4218393;28;5617;-63
2022/11/30 10:52:45;;;;;;;;;;;;;;;11.63;55.59;96896.66;4222561;28;5590;-65
2022/11/30 10:54:49;;;;;;;;;;;;;;;11.65;55.54;96899.94;4228046;28;5873;-64
2022/11/30 10:56:55;;;;;;;;;;;;;;;11.61;55.13;96904.00;4220566;28;5617;-64
2022/11/30 10:59:03;;;;;;;;;;;;;;;11.54;55.44;96903.13;4219808;28;5766;-65
2022/11/30 11:01:08;;;;;;;;;;;;;;;11.56;55.72;96892.38;4219987;28;5601;-64
2022/11/30 11:03:23;;;;;;;;;;;;;;;11.61;55.29;96896.06;4226689;28;5612;-64
2022/11/30 11:05:35;;;;;;;;;;;;;;;11.67;55.08;96899.75;4218633;28;6310;-63
2022/11/30 11:07:46;;;;;;;;;;;;;;;11.71;55.23;96892.22;4221115;28;5782;-66
2022/11/30 11:09:50;;;;;;;;;;;;;;;11.73;54.91;96887.56;4234096;28;5586;-66
2022/11/30 11:11:55;;;;;;;;;;;;;;;11.68;55.03;96897.94;4220699;28;5600;-66
2022/11/30 11:14:14;;;;;;;;;;;;;;;11.64;54.75;96890.34;4224984;28;5752;-66
2022/11/30 11:16:16;;;;;;;;;;;;;;;11.63;54.86;96891.38;4233878;28;5605;-66
2022/11/30 11:18:22;;;;;;;;;;;;;;;11.61;54.97;96892.59;4233659;28;5715;-66
2022/11/30 11:20:32;;;;;;;;;;;;;;;11.59;54.99;96887.50;4225980;28;5732;-66
2022/11/30 11:22:37;;;;;;;;;;;;;;;11.61;54.86;96888.13;4231215;28;5684;-65
2022/11/30 11:24:41;;;;;;;;;;;;;;;11.63;55.21;96872.84;4234019;28;5598;-66
2022/11/30 11:26:50;;;;;;;;;;;;;;;11.65;55.01;96889.34;4230233;28;5695;-66
2022/11/30 11:28:55;;;;;;;;;;;;;;;11.68;54.98;96876.75;4226826;28;5677;-66
2022/11/30 11:30:58;;;;;;;;;;;;;;;11.66;54.72;96874.28;4215469;28;5605;-66
2022/11/30 11:33:03;;;;;;;;;;;;;;;11.68;54.83;96879.41;4219004;28;5854;-66
2022/11/30 11:35:32;;;;;;;;;;;;;;;11.72;54.43;96872.69;4219071;28;5817;-65
2022/11/30 11:37:39;;;;;;;;;;;;;;;11.73;54.85;96883.06;4223213;28;5762;-66
2022/11/30 11:39:54;;;;;;;;;;;;;;;11.76;54.67;96873.91;4230561;28;5122;-66
2022/11/30 11:41:57;;;;;;;;;;;;;;;11.75;54.65;96877.56;4218860;28;7656;-66
2022/11/30 11:44:03;;;;;;;;;;;;;;;11.75;54.54;96883.69;4226822;28;5696;-66
2022/11/30 11:46:12;;;;;;;;;;;;;;;11.79;54.64;96865.59;4219645;28;5688;-67
2022/11/30 11:48:27;;;;;;;;;;;;;;;11.83;54.56;96865.00;4205414;28;5597;-66
2022/11/30 11:50:32;;;;;;;;;;;;;;;11.90;54.42;96870.34;4223012;28;5598;-66
2022/11/30 11:53:24;;;;;;;;;;;;;;;11.88;54.58;96870.50;4219599;28;5616;-66
2022/11/30 11:55:29;;;;;;;;;;;;;;;11.90;54.29;96870.34;4206540;28;5689;-66
2022/11/30 11:57:38;;;;;;;;;;;;;;;11.89;54.43;96871.31;4231301;28;5613;-66
2022/11/30 11:59:48;;;;;;;;;;;;;;;11.90;54.45;96868.50;4226508;28;5712;-66
2022/11/30 12:01:59;;;;;;;;;;;;;;;11.91;54.28;96867.47;4220008;28;5764;-65
2022/11/30 12:04:13;;;;;;;;;;;;;;;11.87;54.18;96862.75;4219044;28;5625;-66
2022/11/30 12:06:18;;;;;;;;;;;;;;;11.92;54.25;96870.94;4223496;28;5582;-65
2022/11/30 12:08:31;;;;;;;;;;;;;;;11.90;54.21;96870.34;4230161;28;5834;-66
2022/11/30 12:10:41;;;;;;;;;;;;;;;11.84;54.11;96861.34;4224581;28;5605;-66
2022/11/30 12:12:54;;;;;;;;;;;;;;;11.79;54.08;96866.44;4230109;28;5665;-66
2022/11/30 12:14:58;;;;;;;;;;;;;;;11.76;53.87;96874.72;4229263;28;5697;-65
2022/11/30 12:17:16;;;;;;;;;;;;;;;11.79;54.07;96869.06;4229028;28;5729;-66
2022/11/30 12:19:22;;;;;;;;;;;;;;;11.82;54.24;96871.31;4223577;28;5602;-65
2022/11/30 12:21:37;;;;;;;;;;;;;;;11.81;53.94;96863.56;4234157;28;5593;-66
2022/11/30 12:23:57;;;;;;;;;;;;;;;11.79;53.99;96865.59;4226780;28;5621;-66
2022/11/30 12:26:12;;;;;;;;;;;;;;;11.74;53.96;96868.00;4229434;28;5869;-65
2022/11/30 12:28:23;;;;;;;;;;;;;;;11.70;53.98;96874.72;4222137;28;5685;-66
2022/11/30 12:30:36;;;;;;;;;;;;;;;11.68;53.55;96877.56;4221268;28;5780;-66
2022/11/30 12:32:58;;;;;;;;;;;;;;;11.65;53.96;96868.16;4220244;28;6417;-65
2022/11/30 12:35:19;;;;;;;;;;;;;;;11.64;53.71;96866.53;4217690;28;5785;-66
2022/11/30 12:37:34;;;;;;;;;;;;;;;11.68;53.59;96868.81;4218262;28;5832;-64
2022/11/30 12:39:46;;;;;;;;;;;;;;;11.68;54.07;96866.16;4217700;28;6389;-64
2022/11/30 12:41:54;;;;;;;;;;;;;;;11.69;53.69;96863.31;4206476;28;5724;-64
2022/11/30 12:44:08;;;;;;;;;;;;;;;11.75;53.53;96866.97;4227271;28;5889;-64
2022/11/30 12:46:22;;;;;;;;;;;;;;;11.74;53.84;96866.16;4227552;28;5874;-64
2022/11/30 12:48:34;;;;;;;;;;;;;;;11.76;53.84;96868.59;4225394;28;5625;-64
2022/11/30 12:50:51;;;;;;;;;;;;;;;11.78;53.76;96862.13;4217708;28;5806;-64
2022/11/30 12:53:02;;;;;;;;;;;;;;;11.80;53.59;96857.47;4224831;28;5598;-65
2022/11/30 12:55:19;;;;;;;;;;;;;;;11.83;53.66;96865.00;4218038;28;5620;-65
2022/11/30 12:57:27;;;;;;;;;;;;;;;11.84;53.66;96856.03;4220438;28;5764;-65
2022/11/30 12:59:39;;;;;;;;;;;;;;;11.85;53.63;96854.22;4226351;28;5809;-65
2022/11/30 13:02:06;;;;;;;;;;;;;;;11.87;53.79;96854.81;4220573;28;5621;-65
2022/11/30 13:04:16;;;;;;;;;;;;;;;11.87;53.71;96852.16;4218903;28;5691;-65
2022/11/30 13:06:24;;;;;;;;;;;;;;;11.81;53.41;96852.97;4223486;28;5633;-65
2022/11/30 13:08:35;;;;;;;;;;;;;;;11.80;53.57;96854.00;4217629;28;5806;-65
2022/11/30 13:10:42;;;;;;;;;;;;;;;11.82;53.43;96850.13;4230984;28;5710;-66
2022/11/30 13:12:53;;;;;;;;;;;;;;;11.85;53.40;96851.56;4234404;28;5602;-64
2022/11/30 13:15:00;;;;;;;;;;;;;;;11.85;53.22;96854.22;4225218;28;5629;-66
2022/11/30 13:17:06;;;;;;;;;;;;;;;11.80;53.23;96854.00;4234067;28;5605;-66
2022/11/30 13:19:26;;;;;;;;;;;;;;;11.79;53.44;96857.63;4217371;28;5613;-65
2022/11/30 13:21:34;;;;;;;;;;;;;;;11.75;52.91;96843.97;4221016;28;5707;-65
2022/11/30 13:23:41;;;;;;;;;;;;;;;11.68;53.07;96845.78;4225990;28;5606;-63
2022/11/30 13:25:52;;;;;;;;;;;;;;;11.60;52.87;96838.81;4222797;28;5878;-68
2022/11/30 13:28:21;;;;;;;;;;;;;;;11.58;53.17;96850.63;4227363;28;5829;-73
2022/11/30 13:30:35;;;;;;;;;;;;;;;11.59;53.08;96842.50;4222024;28;5617;-68
2022/11/30 13:32:38;;;;;;;;;;;;;;;11.64;52.99;96840.03;4229745;28;5785;-67
2022/11/30 13:35:39;;;;;;;;;;;;;;;11.60;53.01;96852.06;4228394;28;5116;-71
2022/11/30 13:37:42;;;;;;;;;;;;;;;11.61;52.87;96850.22;4225448;28;5683;-66
2022/11/30 13:39:48;;;;;;;;;;;;;;;11.58;52.52;96835.56;4228685;28;5708;-66
2022/11/30 13:42:07;;;;;;;;;;;;;;;11.58;53.10;96834.75;4229916;28;5777;-66
2022/11/30 13:44:24;;;;;;;;;;;;;;;11.54;52.49;96839.59;4228308;28;5773;-67
2022/11/30 13:46:27;;;;;;;;;;;;;;;11.50;52.66;96841.03;4225276;28;6294;-66
2022/11/30 13:48:33;;;;;;;;;;;;;;;11.47;52.63;96838.78;4229062;28;5633;-66
2022/11/30 13:50:38;;;;;;;;;;;;;;;11.46;52.76;96831.84;4233697;28;5681;-66
2022/11/30 13:53:29;;;;;;;;;;;;;;;11.42;52.63;96837.72;4225102;28;5653;-66
2022/11/30 13:56:00;;;;;;;;;;;;;;;11.39;52.65;96836.28;4136726;28;5703;-66
2022/11/30 13:58:06;;;;;;;;;;;;;;;11.37;52.69;96833.03;4131604;28;5967;-67
2022/11/30 14:00:45;;;;;;;;;;;;;;;11.34;52.99;96838.72;4141560;28;5815;-67
2022/11/30 14:02:53;;;;;;;;;;;;;;;11.35;52.77;96835.88;4099980;28;5860;-67
2022/11/30 14:05:20;;;;;;;;;;;;;;;11.32;52.86;96835.44;4100035;28;5756;-66
2022/11/30 14:07:37;;;;;;;;;;;;;;;11.34;52.67;96836.06;4095037;28;5855;-66
2022/11/30 14:10:21;;;;;;;;;;;;;;;11.30;52.50;96827.69;4100032;28;5721;-66
2022/11/30 14:12:57;;;;;;;;;;;;;;;11.35;52.94;96850.94;4092317;29;5874;-66
2022/11/30 14:15:01;;;;;;;;;;;;;;;11.34;52.41;96841.38;4099177;28;5828;-65
2022/11/30 14:17:12;;;;;;;;;;;;;;;11.26;52.43;96844.97;4084413;28;5756;-65
2022/11/30 14:19:15;;;;;;;;;;;;;;;11.24;52.80;96843.56;4099517;28;5752;-67
2022/11/30 14:21:29;;;;;;;;;;;;;;;11.25;52.68;96839.88;4100242;29;5744;-67
2022/11/30 14:23:43;;;;;;;;;;;;;;;11.30;52.44;96848.03;4099588;28;5749;-67
2022/11/30 14:25:48;;;;;;;;;;;;;;;11.34;52.68;96850.13;4100365;28;5768;-66
2022/11/30 14:27:57;;;;;;;;;;;;;;;11.32;52.73;96846.00;4095685;28;5759;-66
2022/11/30 14:30:03;;;;;;;;;;;;;;;11.35;52.43;96850.94;4140097;28;5852;-67
2022/11/30 14:32:11;;;;;;;;;;;;;;;11.40;52.66;96852.97;4157136;28;5727;-67
2022/11/30 14:34:17;;;;;;;;;;;;;;;11.33;52.64;96843.19;4156105;28;5693;-67
2022/11/30 14:36:22;;;;;;;;;;;;;;;11.32;52.38;96846.00;4164618;28;5880;-66
2022/11/30 14:38:26;;;;;;;;;;;;;;;11.32;52.60;96849.47;4210577;28;5870;-66
2022/11/30 14:40:30;;;;;;;;;;;;;;;11.34;52.45;96852.78;4227271;28;5609;-63
2022/11/30 14:42:34;;;;;;;;;;;;;;;11.33;52.64;96852.97;4225335;28;5590;-64
2022/11/30 14:44:43;;;;;;;;;;;;;;;11.32;52.67;96854.78;4223044;28;5663;-65
2022/11/30 14:46:47;;;;;;;;;;;;;;;11.30;52.54;96850.69;4228256;28;5610;-65
2022/11/30 14:49:12;;;;;;;;;;;;;;;11.32;52.60;96853.94;4229448;28;5629;-63
2022/11/30 14:51:18;;;;;;;;;;;;;;;11.32;52.83;96846.84;4219650;28;5605;-65
2022/11/30 14:53:29;;;;;;;;;;;;;;;11.31;52.80;96847.84;4220283;28;6645;-67
2022/11/30 14:55:38;;;;;;;;;;;;;;;11.29;52.76;96851.72;4223932;28;5621;-67
2022/11/30 14:57:46;;;;;;;;;;;;;;;11.26;52.76;96846.81;4224924;28;5606;-65
2022/11/30 14:59:51;;;;;;;;;;;;;;;11.20;52.53;96843.09;4229434;28;5800;-64
2022/11/30 15:01:57;;;;;;;;;;;;;;;11.21;52.49;96850.06;4221483;28;5616;-65
2022/11/30 15:04:10;;;;;;;;;;;;;;;11.22;52.88;96851.69;4224919;28;5756;-64
2022/11/30 15:06:15;;;;;;;;;;;;;;;11.21;52.62;96841.28;4208641;28;5652;-66
2022/11/30 15:08:19;;;;;;;;;;;;;;;11.20;52.62;96858.16;4224663;28;5967;-66
2022/11/30 15:10:28;;;;;;;;;;;;;;;11.21;52.55;96843.91;4229133;28;7276;-68
2022/11/30 15:12:33;;;;;;;;;;;;;;;11.15;52.72;96845.53;4227092;28;5778;-66
2022/11/30 15:14:35;;;;;;;;;;;;;;;11.12;52.50;96855.69;4222076;28;5606;-65
2022/11/30 15:16:47;;;;;;;;;;;;;;;11.15;52.83;96850.00;4223987;28;5614;-71
2022/11/30 15:18:50;;;;;;;;;;;;;;;11.16;52.72;96847.16;4231605;28;5672;-69
2022/11/30 15:20:59;;;;;;;;;;;;;;;11.15;52.56;96853.47;4227885;28;5606;-67
2022/11/30 15:23:01;;;;;;;;;;;;;;;11.12;52.85;96861.81;4227026;28;5665;-70
2022/11/30 15:25:06;;;;;;;;;;;;;;;11.09;52.86;96854.25;4211899;28;5630;-69
2022/11/30 15:27:15;;;;;;;;;;;;;;;11.09;52.55;96856.88;4230511;28;5685;-70
2022/11/30 15:29:23;;;;;;;;;;;;;;;11.09;52.87;96857.69;4224772;28;5709;-70
2022/11/30 15:31:32;;;;;;;;;;;;;;;11.07;52.64;96850.97;4226865;28;5602;-69
2022/11/30 15:33:42;;;;;;;;;;;;;;;11.09;53.00;96863.00;4219189;28;6314;-70
2022/11/30 15:35:46;;;;;;;;;;;;;;;11.09;52.87;96856.88;4231578;28;5606;-69
2022/11/30 15:38:10;;;;;;;;;;;;;;;11.11;52.44;96862.81;4210734;28;5692;-68
2022/11/30 15:40:16;;;;;;;;;;;;;;;11.12;52.68;96861.00;4226745;28;5785;-69
2022/11/30 15:42:29;;;;;;;;;;;;;;;11.08;52.79;96861.34;4225884;28;5975;-72
2022/11/30 15:44:39;;;;;;;;;;;;;;;11.03;52.72;96869.06;4230895;28;5606;-68
2022/11/30 15:46:55;;;;;;;;;;;;;;;11.04;52.61;96861.97;4229193;28;5594;-69
2022/11/30 15:49:07;;;;;;;;;;;;;;;11.01;52.66;96873.75;4224137;28;5629;-63
2022/11/30 15:51:23;;;;;;;;;;;;;;;10.98;52.51;96866.19;4226614;28;6987;-64
2022/11/30 15:53:30;;;;;;;;;;;;;;;11.00;52.95;96866.81;4228176;28;5804;-64
2022/11/30 15:55:42;;;;;;;;;;;;;;;10.95;52.79;96861.28;4229576;28;5606;-64
2022/11/30 15:57:59;;;;;;;;;;;;;;;10.89;52.73;96867.38;4230298;28;5931;-68
2022/11/30 16:00:06;;;;;;;;;;;;;;;10.88;52.89;96872.84;4236163;28;5585;-64
2022/11/30 16:02:26;;;;;;;;;;;;;;;10.93;52.73;96873.88;4219382;28;5609;-69
2022/11/30 16:04:49;;;;;;;;;;;;;;;10.97;52.80;96875.13;4219202;28;5628;-64
2022/11/30 16:06:52;;;;;;;;;;;;;;;10.92;52.67;96880.19;4225662;28;5708;-68
2022/11/30 16:08:58;;;;;;;;;;;;;;;10.88;52.51;96875.50;4226901;28;5787;-65
2022/11/30 16:11:01;;;;;;;;;;;;;;;10.91;52.69;96875.09;4227423;28;5598;-69
2022/11/30 16:13:13;;;;;;;;;;;;;;;10.90;52.57;96878.75;4231508;28;5590;-68
2022/11/30 16:15:18;;;;;;;;;;;;;;;10.89;52.90;96882.41;4221405;28;5796;-68
2022/11/30 16:17:21;;;;;;;;;;;;;;;10.82;53.00;96871.78;4222481;28;5589;-70
2022/11/30 16:19:24;;;;;;;;;;;;;;;10.81;53.07;96886.00;4226405;28;5677;-69
2022/11/30 16:21:27;;;;;;;;;;;;;;;10.82;53.04;96890.28;4229366;28;5598;-72
2022/11/30 16:23:33;;;;;;;;;;;;;;;10.81;53.03;96891.31;4218226;28;5609;-72
2022/11/30 16:25:40;;;;;;;;;;;;;;;10.78;52.85;96886.41;4223816;28;5594;-69
2022/11/30 16:27:43;;;;;;;;;;;;;;;10.71;52.94;96878.41;4224616;28;5711;-72
2022/11/30 16:29:46;;;;;;;;;;;;;;;10.73;52.85;96878.22;4228077;28;5594;-73
2022/11/30 16:31:54;;;;;;;;;;;;;;;10.73;52.87;96894.88;4219922;28;5680;-71
2022/11/30 16:33:57;;;;;;;;;;;;;;;10.69;52.92;96892.84;4205545;28;6068;-71
2022/11/30 16:36:01;;;;;;;;;;;;;;;10.66;52.99;96901.16;4218953;28;5629;-66
2022/11/30 16:38:05;;;;;;;;;;;;;;;10.59;53.12;96908.19;4225923;28;5802;-72
2022/11/30 16:40:09;;;;;;;;;;;;;;;10.55;52.77;96899.03;4229763;28;5734;-73
2022/11/30 16:42:13;;;;;;;;;;;;;;;10.54;52.71;96921.19;4226575;28;5711;-65
2022/11/30 16:44:15;;;;;;;;;;;;;;;10.52;52.86;96897.56;4223028;28;5632;-67
2022/11/30 16:46:20;;;;;;;;;;;;;;;10.55;52.66;96906.97;4222976;28;5624;-73
2022/11/30 16:48:23;;;;;;;;;;;;;;;10.56;53.08;96901.47;4222752;28;5617;-65
2022/11/30 16:50:25;;;;;;;;;;;;;;;10.56;52.94;96904.13;4224537;28;5612;-67
2022/11/30 16:52:29;;;;;;;;;;;;;;;10.48;52.95;96902.41;4219568;28;5669;-70
2022/11/30 16:54:32;;;;;;;;;;;;;;;10.51;52.84;96898.56;4203354;28;5803;-70
2022/11/30 16:56:35;;;;;;;;;;;;;;;10.52;52.92;96899.38;4216858;28;5838;-70
2022/11/30 16:58:39;;;;;;;;;;;;;;;10.47;53.02;96908.72;4223564;28;5606;-62
2022/11/30 17:00:43;;;;;;;;;;;;;;;10.49;52.74;96904.03;4226315;28;6288;-62
2022/11/30 17:02:53;;;;;;;;;;;;;;;10.46;52.85;96914.19;4232542;28;5609;-64
2022/11/30 17:04:57;;;;;;;;;;;;;;;10.48;53.24;96917.47;4229676;28;5673;-63
2022/11/30 17:06:59;;;;;;;;;;;;;;;10.52;53.06;96913.41;4223863;28;5624;-63
2022/11/30 17:09:04;;;;;;;;;;;;;;;10.54;53.07;96918.53;4217945;28;5676;-63
2022/11/30 17:11:14;;;;;;;;;;;;;;;10.53;53.08;96915.06;4217965;28;5692;-63
2022/11/30 17:13:17;;;;;;;;;;;;;;;10.48;53.05;96915.63;4226919;28;5783;-63
2022/11/30 17:15:23;;;;;;;;;;;;;;;10.48;52.95;96910.34;4223525;28;5621;-64
2022/11/30 17:17:27;;;;;;;;;;;;;;;10.42;52.83;96916.41;4229505;28;5598;-62
2022/11/30 17:19:29;;;;;;;;;;;;;;;10.40;52.94;96918.38;4227344;28;5807;-62
2022/11/30 17:21:34;;;;;;;;;;;;;;;10.39;53.03;96929.16;4227081;28;5683;-62
2022/11/30 17:23:37;;;;;;;;;;;;;;;10.38;53.23;96936.25;4226934;28;5601;-62
2022/11/30 17:25:40;;;;;;;;;;;;;;;10.31;53.33;96919.53;4222652;28;5682;-62
2022/11/30 17:27:43;;;;;;;;;;;;;;;10.33;53.14;96929.91;4225434;28;5658;-62
2022/11/30 17:29:46;;;;;;;;;;;;;;;10.32;53.10;96926.47;4222374;28;5773;-63
2022/11/30 17:31:50;;;;;;;;;;;;;;;10.30;53.17;96925.00;4223298;28;5610;-63
2022/11/30 17:33:53;;;;;;;;;;;;;;;10.30;53.12;96925.81;4221133;28;5801;-63
2022/11/30 17:35:57;;;;;;;;;;;;;;;10.26;53.16;96924.56;4224771;28;5817;-63
2022/11/30 17:38:00;;;;;;;;;;;;;;;10.18;53.40;96922.00;4227395;28;5696;-66